createdAt,value
2023-04-07T00:01:46.465Z,2.67
2023-04-07T00:04:13.760Z,2.52
2023-04-07T00:06:41.188Z,2.66
2023-04-07T00:09:08.108Z,2.66
2023-04-07T00:11:35.043Z,2.59
2023-04-07T00:14:02.176Z,2.43
2023-04-07T00:16:29.222Z,2.52
2023-04-07T00:18:56.284Z,2.23
2023-04-07T00:21:23.157Z,2.59
2023-04-07T00:23:50.264Z,2.58
2023-04-07T00:26:17.150Z,2.63
2023-04-07T00:28:45.229Z,2.53
2023-04-07T00:31:12.335Z,2.33
2023-04-07T00:33:39.470Z,2.62
2023-04-07T00:36:06.555Z,2.57
2023-04-07T00:38:33.852Z,2.55
2023-04-07T00:41:01.391Z,2.56
2023-04-07T00:43:28.364Z,2.59
2023-04-07T00:45:56.206Z,2.61
2023-04-07T00:48:25.608Z,2.54
2023-04-07T00:50:53.006Z,2.33
2023-04-07T00:53:20.930Z,2.36
2023-04-07T00:55:48.064Z,2.51
2023-04-07T00:58:15.075Z,2.54
2023-04-07T01:00:51.800Z,2.53
2023-04-07T01:03:26.657Z,2.57
2023-04-07T01:06:02.359Z,2.52
2023-04-07T01:08:35.648Z,2.52
2023-04-07T01:11:11.312Z,2.55
2023-04-07T01:13:45.976Z,2.42
2023-04-07T01:16:53.666Z,2.55
2023-04-07T01:19:38.440Z,2.58
2023-04-07T01:22:12.809Z,2.49
2023-04-07T01:25:15.874Z,2.56
2023-04-07T01:27:51.870Z,2.62
2023-04-07T01:30:20.576Z,2.61
2023-04-07T01:32:52.268Z,2.60
2023-04-07T01:35:23.393Z,2.60
2023-04-07T01:37:52.350Z,2.69
2023-04-07T01:40:22.155Z,2.73
2023-04-07T01:42:49.918Z,2.76
2023-04-07T01:45:17.480Z,2.78
2023-04-07T01:47:45.890Z,2.61
2023-04-07T01:50:13.618Z,2.42
2023-04-07T01:52:42.881Z,2.34
2023-04-07T01:55:10.630Z,2.21
2023-04-07T01:57:44.176Z,2.11
2023-04-07T02:00:15.963Z,2.10
2023-04-07T02:02:49.224Z,2.09
2023-04-07T02:05:20.914Z,2.01
2023-04-07T02:07:56.153Z,1.92
2023-04-07T02:10:27.141Z,2.07
2023-04-07T02:13:00.616Z,2.00
2023-04-07T02:15:31.480Z,1.96
2023-04-07T02:18:00.891Z,2.10
2023-04-07T02:20:28.799Z,2.11
2023-04-07T02:22:56.227Z,2.10
2023-04-07T02:25:27.192Z,2.06
2023-04-07T02:27:55.753Z,2.09
2023-04-07T02:30:23.149Z,2.07
2023-04-07T02:32:52.274Z,2.21
2023-04-07T02:35:21.226Z,2.15
2023-04-07T02:37:48.486Z,2.22
2023-04-07T02:40:16.350Z,2.13
2023-04-07T02:42:44.354Z,2.38
2023-04-07T02:45:11.917Z,2.34
2023-04-07T02:47:39.648Z,2.26
2023-04-07T02:50:07.113Z,2.26
2023-04-07T02:52:36.202Z,2.40
2023-04-07T02:55:09.799Z,2.34
2023-04-07T02:57:37.019Z,2.14
2023-04-07T03:00:09.440Z,2.29
2023-04-07T03:03:09.186Z,2.42
2023-04-07T03:05:39.336Z,2.41
2023-04-07T03:08:07.653Z,2.53
2023-04-07T03:10:34.635Z,2.58
2023-04-07T03:13:01.790Z,2.60
2023-04-07T03:15:30.123Z,2.52
2023-04-07T03:17:57.295Z,2.62
2023-04-07T03:20:24.279Z,2.61
2023-04-07T03:22:51.545Z,2.61
2023-04-07T03:25:25.665Z,2.56
2023-04-07T03:27:52.929Z,2.40
2023-04-07T03:30:20.906Z,2.33
2023-04-07T03:32:48.646Z,2.26
2023-04-07T03:35:15.797Z,2.29
2023-04-07T03:37:44.873Z,2.32
2023-04-07T03:40:16.035Z,2.34
2023-04-07T03:42:43.744Z,2.42
2023-04-07T03:45:12.870Z,2.62
2023-04-07T03:47:44.920Z,2.78
2023-04-07T03:50:12.746Z,2.82
2023-04-07T03:52:53.154Z,2.93
2023-04-07T03:55:26.741Z,2.96
2023-04-07T03:57:58.927Z,3.08
2023-04-07T04:00:31.846Z,3.09
2023-04-07T04:03:07.217Z,3.13
2023-04-07T04:05:37.185Z,3.21
2023-04-07T04:08:04.407Z,3.13
2023-04-07T04:10:33.519Z,3.38
2023-04-07T04:13:04.074Z,3.30
2023-04-07T04:15:31.238Z,3.42
2023-04-07T04:18:00.664Z,3.57
2023-04-07T04:20:27.830Z,3.47
2023-04-07T04:22:55.480Z,3.34
2023-04-07T04:25:22.691Z,3.28
2023-04-07T04:27:53.926Z,3.13
2023-04-07T04:30:23.610Z,3.00
2023-04-07T04:33:02.013Z,2.96
2023-04-07T04:35:41.568Z,2.89
2023-04-07T04:38:16.328Z,3.11
2023-04-07T04:40:49.659Z,3.02
2023-04-07T04:43:19.862Z,2.98
2023-04-07T04:45:47.629Z,3.03
2023-04-07T04:48:17.420Z,2.98
2023-04-07T04:50:45.011Z,3.12
2023-04-07T04:53:14.503Z,3.21
2023-04-07T04:55:52.232Z,3.18
2023-04-07T04:58:27.190Z,3.19
2023-04-07T05:00:58.332Z,3.30
2023-04-07T05:03:33.685Z,3.46
2023-04-07T05:06:04.364Z,3.57
2023-04-07T05:08:32.407Z,3.65
2023-04-07T05:11:00.704Z,2.91
2023-04-07T05:13:31.841Z,3.73
2023-04-07T05:16:02.584Z,3.71
2023-04-07T05:18:31.099Z,3.75
2023-04-07T05:20:59.275Z,3.61
2023-04-07T05:23:28.081Z,3.68
2023-04-07T05:25:55.793Z,3.86
2023-04-07T05:28:24.745Z,4.00
2023-04-07T05:30:53.893Z,4.06
2023-04-07T05:33:25.620Z,4.16
2023-04-07T05:35:54.154Z,4.38
2023-04-07T05:38:21.473Z,4.35
2023-04-07T05:40:49.665Z,4.45
2023-04-07T05:43:24.660Z,4.61
2023-04-07T05:45:51.903Z,4.60
2023-04-07T05:48:19.264Z,4.10
2023-04-07T05:50:47.644Z,4.95
2023-04-07T05:53:17.798Z,5.05
2023-04-07T05:55:44.838Z,5.07
2023-04-07T05:58:24.548Z,4.99
2023-04-07T06:00:54.366Z,5.12
2023-04-07T06:03:21.843Z,5.21
2023-04-07T06:06:01.677Z,5.19
2023-04-07T06:08:29.318Z,5.42
2023-04-07T06:10:57.082Z,5.46
2023-04-07T06:13:24.005Z,5.62
2023-04-07T06:15:51.321Z,5.80
2023-04-07T06:18:18.315Z,6.00
2023-04-07T06:20:45.367Z,6.06
2023-04-07T06:23:12.248Z,6.11
2023-04-07T06:25:47.220Z,6.22
2023-04-07T06:28:15.540Z,6.11
2023-04-07T06:30:42.631Z,6.02
2023-04-07T06:33:12.318Z,5.86
2023-04-07T06:35:41.663Z,5.96
2023-04-07T06:38:08.628Z,6.12
2023-04-07T06:40:35.826Z,6.40
2023-04-07T06:43:04.177Z,6.41
2023-04-07T06:45:46.050Z,6.69
2023-04-07T06:48:13.354Z,6.81
2023-04-07T06:50:40.408Z,6.97
2023-04-07T06:53:07.460Z,7.21
2023-04-07T06:55:34.333Z,7.39
2023-04-07T06:58:01.366Z,7.36
2023-04-07T07:00:30.348Z,7.46
2023-04-07T07:02:57.804Z,7.85
2023-04-07T07:05:25.593Z,8.14
2023-04-07T07:07:52.703Z,8.43
2023-04-07T07:10:22.886Z,8.54
2023-04-07T07:12:51.706Z,8.75
2023-04-07T07:15:18.757Z,8.87
2023-04-07T07:17:45.682Z,9.07
2023-04-07T07:20:12.718Z,8.59
2023-04-07T07:22:39.794Z,8.40
2023-04-07T07:25:07.322Z,8.37
2023-04-07T07:27:34.298Z,8.36
2023-04-07T07:30:01.556Z,8.59
2023-04-07T07:32:28.880Z,8.79
2023-04-07T07:34:56.528Z,9.11
2023-04-07T07:37:23.400Z,9.16
2023-04-07T07:39:50.390Z,9.11
2023-04-07T07:42:21.564Z,9.29
2023-04-07T07:44:48.825Z,9.37
2023-04-07T07:47:15.664Z,9.37
2023-04-07T07:49:43.772Z,9.75
2023-04-07T07:52:11.362Z,9.72
2023-04-07T07:54:38.377Z,9.64
2023-04-07T07:57:06.241Z,9.58
2023-04-07T07:59:33.281Z,9.74
2023-04-07T08:02:00.520Z,10.01
2023-04-07T08:04:27.713Z,10.12
2023-04-07T08:06:55.202Z,10.08
2023-04-07T08:09:22.302Z,9.93
2023-04-07T08:11:49.660Z,10.11
2023-04-07T08:14:17.304Z,10.25
2023-04-07T08:16:45.490Z,10.17
2023-04-07T08:19:13.539Z,10.21
2023-04-07T08:21:40.794Z,10.29
2023-04-07T08:24:09.149Z,10.32
2023-04-07T08:26:36.196Z,10.55
2023-04-07T08:29:03.183Z,10.42
2023-04-07T08:31:30.357Z,10.49
2023-04-07T08:34:00.210Z,10.10
2023-04-07T08:36:28.925Z,9.96
2023-04-07T08:38:55.902Z,9.81
2023-04-07T08:41:39.824Z,9.85
2023-04-07T08:44:07.839Z,9.75
2023-04-07T08:46:35.131Z,9.74
2023-04-07T08:49:02.754Z,9.74
2023-04-07T08:51:34.695Z,10.19
2023-04-07T08:54:05.265Z,10.47
2023-04-07T08:56:34.517Z,10.14
2023-04-07T08:59:03.116Z,10.24
2023-04-07T09:01:31.090Z,9.98
2023-04-07T09:03:59.205Z,10.24
2023-04-07T09:06:27.362Z,10.23
2023-04-07T09:08:55.401Z,9.96
2023-04-07T09:11:23.706Z,10.03
2023-04-07T09:13:51.310Z,10.17
2023-04-07T09:16:18.949Z,10.12
2023-04-07T09:18:46.216Z,10.52
2023-04-07T09:21:15.214Z,10.77
2023-04-07T09:23:43.152Z,10.88
2023-04-07T09:26:26.123Z,10.97
2023-04-07T09:28:59.743Z,10.95
2023-04-07T09:31:50.752Z,11.01
2023-04-07T09:34:41.033Z,10.58
2023-04-07T09:37:09.699Z,10.43
2023-04-07T09:39:57.067Z,10.50
2023-04-07T09:42:24.045Z,10.36
2023-04-07T09:44:51.187Z,10.21
2023-04-07T09:47:18.262Z,9.93
2023-04-07T09:49:53.709Z,10.02
2023-04-07T09:52:26.457Z,10.19
2023-04-07T09:54:55.873Z,10.32
2023-04-07T09:57:23.849Z,10.53
2023-04-07T09:59:54.356Z,10.77
2023-04-07T10:02:23.224Z,10.82
2023-04-07T10:04:50.555Z,10.85
2023-04-07T10:07:17.736Z,11.28
2023-04-07T10:09:44.679Z,11.48
2023-04-07T10:12:12.464Z,11.49
2023-04-07T10:14:40.425Z,11.28
2023-04-07T10:17:08.534Z,11.24
2023-04-07T10:19:36.409Z,11.03
2023-04-07T10:22:05.925Z,10.89
2023-04-07T10:24:59.057Z,10.99
2023-04-07T10:27:37.415Z,10.82
2023-04-07T10:30:07.292Z,10.60
2023-04-07T10:32:49.614Z,10.76
2023-04-07T10:35:17.397Z,10.64
2023-04-07T10:38:16.936Z,10.59
2023-04-07T10:40:44.594Z,10.37
2023-04-07T10:43:12.297Z,10.63
2023-04-07T10:45:56.196Z,11.02
2023-04-07T10:48:23.615Z,10.51
2023-04-07T10:51:06.195Z,10.58
2023-04-07T10:53:37.153Z,10.66
2023-04-07T10:56:04.548Z,10.40
2023-04-07T10:58:34.730Z,10.29
2023-04-07T11:01:08.007Z,10.80
2023-04-07T11:03:36.397Z,10.89
2023-04-07T11:06:11.359Z,10.87
2023-04-07T11:08:48.962Z,11.06
2023-04-07T11:11:42.518Z,11.07
2023-04-07T11:14:09.839Z,10.98
2023-04-07T11:16:42.446Z,11.02
2023-04-07T11:19:10.061Z,10.98
2023-04-07T11:21:37.114Z,11.05
2023-04-07T11:24:04.406Z,11.09
2023-04-07T11:26:38.268Z,11.06
2023-04-07T11:29:05.380Z,10.65
2023-04-07T11:31:32.689Z,10.95
2023-04-07T11:34:05.446Z,10.92
2023-04-07T11:36:34.627Z,11.18
2023-04-07T11:39:03.060Z,11.26
2023-04-07T11:41:33.029Z,10.92
2023-04-07T11:44:05.176Z,10.39
2023-04-07T11:46:32.394Z,10.17
2023-04-07T11:49:13.480Z,10.25
2023-04-07T11:51:43.126Z,10.22
2023-04-07T11:54:11.160Z,10.38
2023-04-07T11:56:46.810Z,10.41
2023-04-07T11:59:25.052Z,10.44
2023-04-07T12:01:56.159Z,10.62
2023-04-07T12:04:24.898Z,10.81
2023-04-07T12:06:52.056Z,10.64
2023-04-07T12:09:35.977Z,10.23
2023-04-07T12:12:06.365Z,10.19
2023-04-07T12:14:34.468Z,10.54
2023-04-07T12:17:03.631Z,10.46
2023-04-07T12:19:36.233Z,10.50
2023-04-07T12:22:03.779Z,10.59
2023-04-07T12:24:32.438Z,10.57
2023-04-07T12:26:59.906Z,10.46
2023-04-07T12:29:27.092Z,10.41
2023-04-07T12:31:54.233Z,10.47
2023-04-07T12:34:21.660Z,10.87
2023-04-07T12:36:48.871Z,10.58
2023-04-07T12:39:16.718Z,10.64
2023-04-07T12:41:45.871Z,10.48
2023-04-07T12:44:12.940Z,10.51
2023-04-07T12:46:40.016Z,10.51
2023-04-07T12:49:07.314Z,10.75
2023-04-07T12:51:34.688Z,10.67
2023-04-07T12:54:01.822Z,10.91
2023-04-07T12:56:28.857Z,10.75
2023-04-07T12:58:55.963Z,10.21
2023-04-07T13:01:22.987Z,10.15
2023-04-07T13:03:50.114Z,10.45
2023-04-07T13:06:18.073Z,10.52
2023-04-07T13:08:45.097Z,10.48
2023-04-07T13:11:12.215Z,10.43
2023-04-07T13:13:39.193Z,10.33
2023-04-07T13:16:06.324Z,10.31
2023-04-07T13:18:33.304Z,10.30
2023-04-07T13:21:33.583Z,10.55
2023-04-07T13:23:48.607Z,10.53
2023-04-07T13:26:15.561Z,10.19
2023-04-07T13:28:46.055Z,10.15
2023-04-07T13:31:16.287Z,10.27
2023-04-07T13:33:43.907Z,10.23
2023-04-07T13:36:11.030Z,9.81
2023-04-07T13:38:38.395Z,9.44
2023-04-07T13:41:05.572Z,9.51
2023-04-07T13:43:32.493Z,9.50
2023-04-07T13:45:59.479Z,9.38
2023-04-07T13:48:26.621Z,9.38
2023-04-07T13:50:53.735Z,9.27
2023-04-07T13:53:21.762Z,9.24
2023-04-07T13:55:48.940Z,9.56
2023-04-07T13:58:16.930Z,9.51
2023-04-07T14:00:43.903Z,9.77
2023-04-07T14:03:11.680Z,9.45
2023-04-07T14:06:01.420Z,9.26
2023-04-07T14:08:28.472Z,9.00
2023-04-07T14:10:55.736Z,9.08
2023-04-07T14:13:27.277Z,9.22
2023-04-07T14:15:54.453Z,9.13
2023-04-07T14:18:21.698Z,9.07
2023-04-07T14:20:48.815Z,8.73
2023-04-07T14:23:20.771Z,8.66
2023-04-07T14:25:54.727Z,8.60
2023-04-07T14:28:21.677Z,8.72
2023-04-07T14:30:48.650Z,8.65
2023-04-07T14:33:17.778Z,8.79
2023-04-07T14:35:45.096Z,8.83
2023-04-07T14:38:12.036Z,8.76
2023-04-07T14:40:41.334Z,8.77
2023-04-07T14:43:08.232Z,9.01
2023-04-07T14:45:35.788Z,8.93
2023-04-07T14:48:03.014Z,8.74
2023-04-07T14:50:33.549Z,8.78
2023-04-07T14:53:01.087Z,8.69
2023-04-07T14:55:28.276Z,8.29
2023-04-07T14:57:55.288Z,8.13
2023-04-07T15:00:22.799Z,8.19
2023-04-07T15:02:50.063Z,8.10
2023-04-07T15:05:17.392Z,8.21
2023-04-07T15:07:45.926Z,8.26
2023-04-07T15:10:13.138Z,8.08
2023-04-07T15:12:40.684Z,8.13
2023-04-07T15:15:07.848Z,8.44
2023-04-07T15:17:43.282Z,8.25
2023-04-07T15:20:12.876Z,8.11
2023-04-07T15:22:40.512Z,7.78
2023-04-07T15:25:08.012Z,7.87
2023-04-07T15:27:35.212Z,7.67
2023-04-07T15:30:02.292Z,7.46
2023-04-07T15:32:32.050Z,7.40
2023-04-07T15:34:59.240Z,7.44
2023-04-07T15:37:26.801Z,7.43
2023-04-07T15:39:53.867Z,7.42
2023-04-07T15:42:20.955Z,7.56
2023-04-07T15:44:48.302Z,7.42
2023-04-07T15:47:16.031Z,7.45
2023-04-07T15:49:44.330Z,7.44
2023-04-07T15:52:13.675Z,7.24
2023-04-07T15:54:40.814Z,7.32
2023-04-07T15:57:07.834Z,7.33
2023-04-07T15:59:36.084Z,7.34
2023-04-07T16:02:03.186Z,7.32
2023-04-07T16:04:30.325Z,7.13
2023-04-07T16:06:57.264Z,7.24
2023-04-07T16:09:24.277Z,7.12
2023-04-07T16:11:51.275Z,7.25
2023-04-07T16:14:18.212Z,7.17
2023-04-07T16:16:45.338Z,7.24
2023-04-07T16:19:14.678Z,7.16
2023-04-07T16:21:41.496Z,7.10
2023-04-07T16:24:08.551Z,7.24
2023-04-07T16:26:35.544Z,7.31
2023-04-07T16:29:02.733Z,7.35
2023-04-07T16:31:29.687Z,7.15
2023-04-07T16:33:57.067Z,7.29
2023-04-07T16:36:25.175Z,6.98
2023-04-07T16:38:52.366Z,7.24
2023-04-07T16:41:20.472Z,7.25
2023-04-07T16:43:47.727Z,7.28
2023-04-07T16:46:15.093Z,7.29
2023-04-07T16:48:42.166Z,7.13
2023-04-07T16:51:09.074Z,7.25
2023-04-07T16:53:37.276Z,7.27
2023-04-07T16:56:04.405Z,7.20
2023-04-07T16:58:31.494Z,7.19
2023-04-07T17:00:58.645Z,7.21
2023-04-07T17:03:25.966Z,7.10
2023-04-07T17:05:53.467Z,7.17
2023-04-07T17:08:21.175Z,7.17
2023-04-07T17:10:48.197Z,7.07
2023-04-07T17:13:15.300Z,7.09
2023-04-07T17:15:44.810Z,7.00
2023-04-07T17:18:14.077Z,6.99
2023-04-07T17:20:41.542Z,6.90
2023-04-07T17:23:10.437Z,6.92
2023-04-07T17:25:37.917Z,6.88
2023-04-07T17:28:04.795Z,6.92
2023-04-07T17:30:32.358Z,6.92
2023-04-07T17:32:59.482Z,6.96
2023-04-07T17:35:26.517Z,6.84
2023-04-07T17:37:53.686Z,7.01
2023-04-07T17:40:21.610Z,6.97
2023-04-07T17:42:49.799Z,6.87
2023-04-07T17:45:18.524Z,6.90
2023-04-07T17:47:46.425Z,6.94
2023-04-07T17:50:14.913Z,6.96
2023-04-07T17:52:42.346Z,6.83
2023-04-07T17:55:09.992Z,6.92
2023-04-07T17:57:37.322Z,6.98
2023-04-07T18:00:05.940Z,6.97
2023-04-07T18:02:40.533Z,7.05
2023-04-07T18:05:08.310Z,6.94
2023-04-07T18:07:35.698Z,6.81
2023-04-07T18:10:03.482Z,7.03
2023-04-07T18:12:31.959Z,6.96
2023-04-07T18:14:59.447Z,6.94
2023-04-07T18:17:26.582Z,6.85
2023-04-07T18:19:53.729Z,7.01
2023-04-07T18:22:22.712Z,6.98
2023-04-07T18:24:51.950Z,7.03
2023-04-07T18:27:19.385Z,7.12
2023-04-07T18:29:46.636Z,7.17
2023-04-07T18:32:13.663Z,7.08
2023-04-07T18:34:40.599Z,7.20
2023-04-07T18:37:07.621Z,7.22
2023-04-07T18:39:34.723Z,7.24
2023-04-07T18:42:01.689Z,7.07
2023-04-07T18:44:28.662Z,7.25
2023-04-07T18:46:55.946Z,7.20
2023-04-07T18:49:23.535Z,7.14
2023-04-07T18:51:50.426Z,7.07
2023-04-07T18:54:17.839Z,7.23
2023-04-07T18:56:45.613Z,7.14
2023-04-07T18:59:12.630Z,7.22
2023-04-07T19:01:41.831Z,7.09
2023-04-07T19:04:09.232Z,7.26
2023-04-07T19:06:37.363Z,7.24
2023-04-07T19:09:04.811Z,7.23
2023-04-07T19:11:32.003Z,7.23
2023-04-07T19:13:59.183Z,7.11
2023-04-07T19:16:26.402Z,7.23
2023-04-07T19:18:54.198Z,7.20
2023-04-07T19:21:21.447Z,7.17
2023-04-07T19:23:48.742Z,7.10
2023-04-07T19:26:16.602Z,7.17
2023-04-07T19:28:44.274Z,7.13
2023-04-07T19:31:11.950Z,7.17
2023-04-07T19:33:38.808Z,7.07
2023-04-07T19:36:06.407Z,7.17
2023-04-07T19:38:33.359Z,7.14
2023-04-07T19:41:00.456Z,7.16
2023-04-07T19:43:27.279Z,7.04
2023-04-07T19:45:54.344Z,7.12
2023-04-07T19:48:21.564Z,7.00
2023-04-07T19:50:51.750Z,7.07
2023-04-07T19:53:20.016Z,7.11
2023-04-07T19:55:47.038Z,6.99
2023-04-07T19:58:14.197Z,7.11
2023-04-07T20:00:41.469Z,7.11
2023-04-07T20:03:08.643Z,7.11
2023-04-07T20:05:37.223Z,6.98
2023-04-07T20:08:04.309Z,7.08
2023-04-07T20:10:31.326Z,7.05
2023-04-07T20:12:58.402Z,7.07
2023-04-07T20:15:25.437Z,6.98
2023-04-07T20:17:52.387Z,7.06
2023-04-07T20:20:19.658Z,7.05
2023-04-07T20:22:46.634Z,6.98
2023-04-07T20:25:13.927Z,6.98
2023-04-07T20:27:40.836Z,6.97
2023-04-07T20:30:09.365Z,6.99
2023-04-07T20:32:36.535Z,7.05
2023-04-07T20:35:03.987Z,7.01
2023-04-07T20:37:30.936Z,7.03
2023-04-07T20:39:58.063Z,7.01
2023-04-07T20:42:25.110Z,7.02
2023-04-07T20:44:53.700Z,7.01
2023-04-07T20:47:20.623Z,7.02
2023-04-07T20:49:47.712Z,7.02
2023-04-07T20:52:14.897Z,6.90
2023-04-07T20:54:44.875Z,7.01
2023-04-07T20:57:12.096Z,7.01
2023-04-07T20:59:38.914Z,6.99
2023-04-07T21:02:06.739Z,6.94
2023-04-07T21:04:34.300Z,6.98
2023-04-07T21:07:01.381Z,6.89
2023-04-07T21:09:28.485Z,6.95
2023-04-07T21:11:55.640Z,6.95
2023-04-07T21:14:22.587Z,6.93
2023-04-07T21:16:50.012Z,6.92
2023-04-07T21:19:17.837Z,6.91
2023-04-07T21:21:44.745Z,6.89
2023-04-07T21:24:12.287Z,6.87
2023-04-07T21:26:39.382Z,6.74
2023-04-07T21:29:06.638Z,6.86
2023-04-07T21:31:33.856Z,6.86
2023-04-07T21:34:00.782Z,6.67
2023-04-07T21:36:32.163Z,6.80
2023-04-07T21:38:59.182Z,6.84
2023-04-07T21:41:25.999Z,6.84
2023-04-07T21:43:52.866Z,6.75
2023-04-07T21:46:19.974Z,6.76
2023-04-07T21:48:48.461Z,6.71
2023-04-07T21:51:15.802Z,6.77
2023-04-07T21:53:42.734Z,6.73
2023-04-07T21:56:09.696Z,6.50
2023-04-07T21:58:37.469Z,6.53
2023-04-07T22:01:04.488Z,6.40
2023-04-07T22:03:32.028Z,6.27
2023-04-07T22:06:00.190Z,6.19
2023-04-07T22:08:27.331Z,6.13
2023-04-07T22:10:54.312Z,6.00
2023-04-07T22:13:21.175Z,5.89
2023-04-07T22:15:48.216Z,5.85
2023-04-07T22:18:15.674Z,5.84
2023-04-07T22:20:42.612Z,5.92
2023-04-07T22:23:09.509Z,6.01
2023-04-07T22:25:36.687Z,5.92
2023-04-07T22:28:03.895Z,6.01
2023-04-07T22:30:30.791Z,6.00
2023-04-07T22:32:57.869Z,6.04
2023-04-07T22:35:24.882Z,6.11
2023-04-07T22:37:51.915Z,6.19
2023-04-07T22:40:19.071Z,6.19
2023-04-07T22:42:46.202Z,6.21
2023-04-07T22:45:13.375Z,6.24
2023-04-07T22:47:40.756Z,6.14
2023-04-07T22:50:08.284Z,6.19
2023-04-07T22:52:35.343Z,6.22
2023-04-07T22:55:02.394Z,6.31
2023-04-07T22:57:30.425Z,6.32
2023-04-07T22:59:57.440Z,6.31
2023-04-07T23:02:24.444Z,6.26
2023-04-07T23:04:52.066Z,6.36
2023-04-07T23:07:19.035Z,6.37
2023-04-07T23:09:46.350Z,6.36
2023-04-07T23:12:13.299Z,6.37
2023-04-07T23:14:40.441Z,6.33
2023-04-07T23:17:07.708Z,6.39
2023-04-07T23:19:34.786Z,6.35
2023-04-07T23:22:01.934Z,6.41
2023-04-07T23:24:28.919Z,6.42
2023-04-07T23:26:56.981Z,6.42
2023-04-07T23:29:24.065Z,5.97
2023-04-07T23:31:51.185Z,6.33
2023-04-07T23:34:18.157Z,6.45
2023-04-07T23:36:45.148Z,6.45
2023-04-07T23:39:12.246Z,6.41
2023-04-07T23:41:39.747Z,6.30
2023-04-07T23:44:07.251Z,6.43
2023-04-07T23:46:34.213Z,6.45
2023-04-07T23:49:02.393Z,6.40
2023-04-07T23:51:30.457Z,6.37
2023-04-07T23:53:57.520Z,6.42
2023-04-07T23:56:24.754Z,6.43
2023-04-07T23:58:51.999Z,6.42
